createdAt,value
2022-10-15T03:08:10.088Z,11.3
2022-10-15T03:48:33.788Z,10.9
2022-10-15T04:07:29.503Z,7.4
2022-10-15T04:56:19.804Z,9.6
2022-10-15T05:02:11.855Z,7.3
2022-10-15T05:08:03.805Z,7.7
2022-10-15T05:13:55.594Z,8.1
2022-10-15T05:19:48.803Z,5.9
2022-10-15T05:25:40.072Z,6.2
2022-10-15T05:31:30.833Z,8.3
2022-10-15T05:37:22.698Z,8.4
2022-10-15T05:43:16.573Z,7.2
2022-10-15T05:49:19.732Z,6.8
2022-10-15T05:55:16.362Z,5.9
2022-10-15T06:01:10.278Z,7.5
2022-10-15T06:07:05.123Z,6.3
2022-10-15T06:13:07.468Z,7
2022-10-15T06:19:05.052Z,13.4
2022-10-15T06:24:56.145Z,5.7
2022-10-15T06:30:53.626Z,29
2022-10-15T06:36:46.037Z,22.3
2022-10-15T06:42:41.431Z,14.9
2022-10-15T06:54:37.045Z,28.5
2022-10-15T07:00:30.266Z,31.6
2022-10-15T07:06:24.617Z,34.2
2022-10-15T07:12:19.429Z,29
2022-10-15T07:18:13.070Z,30.1
2022-10-15T07:24:08.614Z,27.1
2022-10-15T07:30:00.615Z,22.1
2022-10-15T07:35:53.875Z,17.4
2022-10-15T07:41:46.701Z,15.4
2022-10-15T07:47:37.263Z,15
2022-10-15T07:53:29.317Z,13.9
2022-10-15T07:59:19.968Z,12.8
2022-10-15T08:05:11.302Z,11.4
2022-10-15T08:11:03.209Z,11.8
2022-10-15T08:16:56.741Z,14.3
2022-10-15T08:22:48.001Z,11.1
2022-10-15T08:28:44.875Z,8.3
2022-10-15T08:34:44.516Z,6.5
2022-10-15T08:40:36.792Z,6.2
2022-10-15T08:46:34.898Z,4.6
2022-10-15T08:58:49.771Z,5.6
2022-10-15T09:04:52.381Z,4.5
2022-10-15T09:24:03.378Z,2.8
2022-10-15T10:08:31.642Z,2.5
2022-10-15T11:07:21.316Z,0.4
2022-10-15T11:13:14.600Z,2
2022-10-15T11:27:14.113Z,0.5
2022-10-15T11:33:15.051Z,0.9
2022-10-15T11:39:07.117Z,1.3
2022-10-15T11:44:59.134Z,1.6
2022-10-15T11:50:50.810Z,1.1
2022-10-15T11:56:45.212Z,0.6
2022-10-15T12:02:37.550Z,1.3
2022-10-15T12:08:29.050Z,0.5
2022-10-15T12:14:21.749Z,1.7
2022-10-15T12:20:13.717Z,0.7
2022-10-15T12:26:05.645Z,0.9
2022-10-15T12:31:56.540Z,1
2022-10-15T12:37:48.591Z,0.5
2022-10-15T12:43:39.476Z,0.3
2022-10-15T12:49:30.593Z,0.6
2022-10-15T12:55:21.926Z,1.6
2022-10-15T13:01:13.358Z,0.3
2022-10-15T13:07:05.538Z,0.6
2022-10-15T13:12:56.908Z,1.1
2022-10-15T13:18:48.939Z,1.1
2022-10-15T13:24:40.321Z,0.4
2022-10-15T13:30:31.496Z,2.4
2022-10-15T13:36:25.071Z,0.4
2022-10-15T13:42:18.199Z,1.2
2022-10-15T13:48:09.062Z,0.5
2022-10-15T13:54:01.593Z,0.3
2022-10-15T13:59:54.126Z,0.3
2022-10-15T14:05:45.846Z,0.2
2022-10-15T14:11:37.704Z,0.7
2022-10-15T14:17:30.811Z,1.5
2022-10-15T14:23:21.436Z,2.1
2022-10-15T14:29:12.305Z,0.7
2022-10-15T14:35:07.382Z,1.1
2022-10-15T14:41:07.418Z,1.3
2022-10-15T14:46:58.456Z,1.9
2022-10-15T14:52:50.813Z,1.4
2022-10-15T14:58:43.315Z,2.2
2022-10-15T15:04:35.101Z,1.7
2022-10-15T15:10:26.556Z,1.7
2022-10-15T15:16:17.799Z,0.7
2022-10-15T15:22:10.794Z,2.3
2022-10-15T15:28:00.974Z,0.7
2022-10-15T15:33:53.438Z,1
2022-10-15T15:39:44.244Z,2.1
2022-10-15T15:45:35.687Z,0.8
2022-10-15T15:51:26.468Z,2.1
2022-10-15T15:57:18.858Z,6.8
2022-10-15T16:03:09.366Z,1.7
2022-10-15T16:09:00.259Z,1.1
2022-10-15T16:14:50.972Z,2.8
2022-10-15T16:20:48.700Z,3.2
2022-10-15T16:26:38.691Z,0.9
2022-10-15T16:32:29.413Z,1.5
2022-10-15T16:38:21.402Z,1.1
2022-10-15T16:44:12.331Z,2.7
2022-10-15T16:50:04.191Z,2.4
2022-10-15T16:55:54.711Z,2.5
2022-10-15T17:01:46.107Z,2.5
